Les articles d'ExpertMaritime.pro


Votre expert maritime indépendant Xavier Braive est disponible sur la zone de Saujon - Port de Ribérou - 17600

(Charente-Maritime - Poitou-Charentes)


Voir plan
Situation :

Le port de Ribérou est un port de pêche et de plaisance situé au fond de l'estuaire de la Seudre, à Saujon. C'est l'un des deux ports de la ville avec celui du Breuil, un peu en aval.

Actif dès le XIe siècle, il prend son aspect actuel à partir de 1842, sous l'impulsion du ministre des travaux publics de l'époque, Jules Dufaure, " enfant du pays", qui tente ainsi de relancer le commerce maritime et les activités halieutiques, alors en déclin.
Idéalement situé, en marge du centre-ville, de la base de loisirs de La Lande et des espaces préservés des marais de la Seudre (chemins de halage transformés en sentiers de promenade), il est devenu un des hauts lieux du tourisme saujonnais, où sont notamment organisés des soirées thématiques et le feu d'artifice du 14 juillet.

En 2011, le port de Ribérou a été l'objet d'un important programme de rénovation urbaine conduit par l'architecte-urbaniste Sophie Blanchet, complétant des efforts déjà mis en œuvre en centre-ville.
Une partie du site est reconvertie en esplanade piétonne, dotée d'un mobilier urbain contemporain : il se veut une sorte de "trait d'union" entre la base de loisirs de La Lande (piscine, tennis, boulodrome, stade, terrain de basket...), les sentiers de promenade et de découverte des marais de la Seudre, qui débutent au port, et le centre-ville.
L'inauguration du nouveau port a lieu le 18 août 2012, en présence du maire, Pascal Ferchaud, et d'une foule nombreuse venue profiter des animations : concerts, jeux nautiques, joutes, etc.

Aujourd'hui, le port de Ribérou est un petit port de pêche et de plaisance. C'est également une base de départ pour certains sports nautiques (canoë-kayak). Sa longueur est d'environ 250 mètres pour 40 mètres.
Depuis Ribérou, il est possible d'atteindre successivement les ports du Breuil (Saujon), de L'Éguille, de Mornac, de Chaillevette, de Chatressac (Chaillevette), des Grandes Roches et d'Orivol (Étaules), de La Grève à Duret et de Coux (Arvert), de La Grève (La Tremblade) et de La Cayenne (Marennes).


En 2011, la municipalité entame un programme de rénovation du site portuaire, confié à l'architecte-urbaniste Sophie Blanchet. Il consiste en une transformation des anciens parkings en esplanade piétonne, véritable espace de rencontre doté d'un mobilier urbain moderne et à terme, d'espaces verts. Depuis les quais, bordés d'immeubles bourgeois, de petites rues pittoresques et fleuries de roses trémières permettent de sillonner le quartier et de rejoindre le centre-ville.

Le pont à écluse de Ribérou, dit « pont des eaux contraires », a été rénové en 2010. Il marque la séparation entre les eaux de l'estuaire (côté port : eaux saumâtres) et les eaux du fleuve (côté bassin de retenue : eaux douces).



Adresse :

Mairie
1, place Denfert Rochereau
17600 SAUJON

Tél/Fax : 05 46 02 80 07 / 05 46 02 91 92

E-mail : contact@mairie-saujon.fr
Météo locale sur la zone Port de Ribérou
Heure (UTC) Dir.Vent Vit.Vent (nds) Force (Bft) T°min T°max P (mb) Hum.Rel.
20/01/2020 - 00:00:00 au 20/01/2020 - 03:00:00 046° (NE) 21 5 3°C 4°C 1039 77 %
20/01/2020 - 03:00:00 au 20/01/2020 - 06:00:00 038° (NE) 20 5 2°C 4°C 1038 82 %
20/01/2020 - 06:00:00 au 20/01/2020 - 09:00:00 051° (NE) 23 6 3°C 4°C 1038 75 %
20/01/2020 - 09:00:00 au 20/01/2020 - 12:00:00 056° (NE) 21 5 6°C 6°C 1038 63 %
20/01/2020 - 12:00:00 au 20/01/2020 - 15:00:00 051° (NE) 20 5 7°C 7°C 1037 63 %
20/01/2020 - 15:00:00 au 20/01/2020 - 18:00:00 050° (NE) 19 5 6°C 6°C 1037 70 %
20/01/2020 - 18:00:00 au 20/01/2020 - 21:00:00 055° (NE) 18 5 5°C 5°C 1037 75 %
20/01/2020 - 21:00:00 au 21/01/2020 - 00:00:00 062° (ENE) 16 4 4°C 4°C 1037 74 %
21/01/2020 - 00:00:00 au 21/01/2020 - 03:00:00 057° (ENE) 15 4 3°C 3°C 1036 80 %
21/01/2020 - 03:00:00 au 21/01/2020 - 06:00:00 061° (ENE) 14 4 2°C 2°C 1035 81 %
21/01/2020 - 06:00:00 au 21/01/2020 - 09:00:00 063° (ENE) 12 4 4°C 4°C 1035 76 %
21/01/2020 - 09:00:00 au 21/01/2020 - 12:00:00 055° (NE) 14 4 8°C 8°C 1034 72 %
21/01/2020 - 12:00:00 au 21/01/2020 - 15:00:00 062° (ENE) 13 4 11°C 11°C 1033 67 %
21/01/2020 - 15:00:00 au 21/01/2020 - 18:00:00 050° (NE) 16 4 9°C 9°C 1032 71 %
21/01/2020 - 18:00:00 au 21/01/2020 - 21:00:00 063° (ENE) 17 5 8°C 8°C 1033 61 %
21/01/2020 - 21:00:00 au 22/01/2020 - 00:00:00 055° (NE) 17 5 7°C 7°C 1032 62 %
22/01/2020 - 00:00:00 au 22/01/2020 - 03:00:00 063° (ENE) 15 4 5°C 5°C 1030 65 %
22/01/2020 - 03:00:00 au 22/01/2020 - 06:00:00 060° (ENE) 13 4 5°C 5°C 1028 64 %
22/01/2020 - 06:00:00 au 22/01/2020 - 09:00:00 058° (ENE) 14 4 6°C 6°C 1028 63 %
22/01/2020 - 09:00:00 au 22/01/2020 - 12:00:00 067° (ENE) 14 4 9°C 9°C 1027 64 %
22/01/2020 - 12:00:00 au 22/01/2020 - 15:00:00 057° (ENE) 14 4 10°C 10°C 1024 66 %
22/01/2020 - 15:00:00 au 22/01/2020 - 18:00:00 057° (ENE) 19 5 10°C 10°C 1023 63 %
22/01/2020 - 18:00:00 au 22/01/2020 - 21:00:00 059° (ENE) 20 5 8°C 8°C 1023 63 %
22/01/2020 - 21:00:00 au 23/01/2020 - 00:00:00 066° (ENE) 18 5 8°C 8°C 1022 59 %
23/01/2020 - 00:00:00 au 23/01/2020 - 03:00:00 074° (ENE) 15 4 9°C 9°C 1020 57 %
23/01/2020 - 03:00:00 au 23/01/2020 - 06:00:00 085° (E) 11 4 10°C 10°C 1020 72 %
23/01/2020 - 06:00:00 au 23/01/2020 - 09:00:00 101° (E) 9 3 10°C 10°C 1022 78 %
23/01/2020 - 09:00:00 au 23/01/2020 - 12:00:00 121° (ESE) 8 3 12°C 12°C 1022 75 %
23/01/2020 - 12:00:00 au 23/01/2020 - 15:00:00 104° (ESE) 5 2 12°C 12°C 1021 77 %
23/01/2020 - 15:00:00 au 23/01/2020 - 18:00:00 089° (E) 4 2 10°C 10°C 1021 84 %
23/01/2020 - 18:00:00 au 23/01/2020 - 21:00:00 105° (ESE) 5 2 10°C 10°C 1022 86 %
23/01/2020 - 21:00:00 au 24/01/2020 - 00:00:00 134° (SE) 6 2 9°C 9°C 1022 87 %
24/01/2020 - 00:00:00 au 24/01/2020 - 03:00:00 122° (ESE) 7 3 9°C 9°C 1020 88 %
24/01/2020 - 03:00:00 au 24/01/2020 - 06:00:00 132° (SE) 6 2 8°C 8°C 1021 89 %
24/01/2020 - 06:00:00 au 24/01/2020 - 09:00:00 121° (ESE) 7 3 9°C 9°C 1021 90 %
24/01/2020 - 09:00:00 au 24/01/2020 - 12:00:00 126° (SE) 7 3 11°C 11°C 1021 83 %
24/01/2020 - 12:00:00 au 24/01/2020 - 15:00:00 209° (SSW) 2 1 12°C 12°C 1019 76 %
24/01/2020 - 15:00:00 au 24/01/2020 - 18:00:00 206° (SSW) 1 1 10°C 10°C 1020 86 %
24/01/2020 - 18:00:00 au 24/01/2020 - 21:00:00 152° (SSE) 7 3 9°C 9°C 1020 87 %
24/01/2020 - 21:00:00 au 25/01/2020 - 00:00:00 174° (S) 7 3 8°C 8°C 1019 88 %
openweathermap
Ces informations sont partiellement extraites de Wikipedia, et des sites pertinents pour cette zone. Compilation d'informations de Xavier Braive.
Xavier Braive, Expert Maritime Plaisance se déplace sur Port de Ribérou, Saujon, 17600, Charente-Maritime

Welcome to Cross-Channel yachtmen !

we can deliver survey reports in english, in case of dammage or prior to buy / sell a boat in France (pre-purchase survey), and more specifically on the Normandy and Atlantic coasts.

Zone Méditerrannée

En partenariat avec le cabinet d'expertise IEM, nous proposons une couverture de la Côte d'Azur.
N'hésitez pas à contacter IEM en cliquant sur www.expert-maritime-cote-dazur.com

Uw onafhankelijk jachtexpert

verkrijkbaar op de Normandie kust, bij aankoop of reparatie van jachten (metaal, polyester of composiet). Rapporten in Nederlands

BRAIVE, Xavier
Xavier Braive
Expert Maritime
Nouvelle Aquitaine
France
06 71 50 20 17